createdAt,value
2019-03-03T00:01:08.253Z,63.28
2019-03-03T00:03:37.728Z,64.76
2019-03-03T00:06:07.126Z,64.76
2019-03-03T00:08:36.509Z,65.64
2019-03-03T00:11:05.886Z,65.93
2019-03-03T00:13:35.292Z,66.45
2019-03-03T00:16:04.789Z,67.37
2019-03-03T00:18:34.133Z,67.37
2019-03-03T00:21:03.554Z,68.41
2019-03-03T00:23:33.068Z,68.86
2019-03-03T00:26:02.415Z,68.89
2019-03-03T00:28:31.783Z,69.22
2019-03-03T00:31:01.350Z,69.56
2019-03-03T00:33:30.793Z,69.77
2019-03-03T00:36:00.198Z,69.77
2019-03-03T00:38:34.517Z,70.15
2019-03-03T00:41:20.920Z,70.04
2019-03-03T00:44:21.269Z,70.02
2019-03-03T00:47:08.270Z,70.46
2019-03-03T00:49:55.655Z,70.48
2019-03-03T00:52:53.119Z,70.58
2019-03-03T00:55:35.679Z,70.63
2019-03-03T00:58:29.854Z,70.78
2019-03-03T01:01:15.185Z,70.96
2019-03-03T01:04:03.463Z,71.16
2019-03-03T01:07:00.514Z,71.26
2019-03-03T01:09:38.950Z,71.42
2019-03-03T01:12:23.175Z,71.46
2019-03-03T01:15:06.236Z,71.51
2019-03-03T01:17:50.397Z,71.69
2019-03-03T01:20:50.842Z,71.66
2019-03-03T01:23:39.286Z,71.54
2019-03-03T01:26:08.673Z,71.71
2019-03-03T01:28:38.061Z,71.61
2019-03-03T01:31:07.435Z,71.49
2019-03-03T01:33:36.849Z,71.50
2019-03-03T01:36:06.344Z,71.53
2019-03-03T01:38:35.711Z,71.45
2019-03-03T01:41:06.333Z,71.48
2019-03-03T01:43:35.848Z,71.36
2019-03-03T01:46:05.262Z,71.56
2019-03-03T01:48:34.730Z,71.51
2019-03-03T01:51:04.124Z,71.12
2019-03-03T01:53:33.506Z,70.84
2019-03-03T01:56:02.881Z,70.67
2019-03-03T01:58:32.283Z,70.48
2019-03-03T02:01:01.702Z,70.76
2019-03-03T02:03:31.298Z,70.84
2019-03-03T02:06:00.724Z,70.71
2019-03-03T02:08:30.106Z,70.40
2019-03-03T02:10:59.584Z,70.19
2019-03-03T02:13:28.996Z,69.86
2019-03-03T02:15:58.450Z,69.59
2019-03-03T02:18:27.802Z,69.32
2019-03-03T02:20:57.157Z,69.31
2019-03-03T02:23:26.576Z,69.62
2019-03-03T02:25:55.962Z,69.50
2019-03-03T02:28:25.333Z,69.62
2019-03-03T02:30:54.719Z,69.63
2019-03-03T02:33:24.296Z,69.39
2019-03-03T02:35:53.626Z,69.24
2019-03-03T02:38:22.987Z,69.26
2019-03-03T02:40:52.345Z,69.01
2019-03-03T02:43:21.758Z,68.83
2019-03-03T02:45:51.217Z,68.65
2019-03-03T02:48:20.567Z,68.48
2019-03-03T02:50:49.969Z,68.48
2019-03-03T02:53:19.336Z,68.38
2019-03-03T02:55:48.703Z,68.23
2019-03-03T02:58:18.048Z,68.07
2019-03-03T03:00:55.028Z,68.09
2019-03-03T03:03:24.558Z,68.07
2019-03-03T03:06:11.979Z,68.20
2019-03-03T03:08:59.459Z,68.17
2019-03-03T03:11:45.964Z,68.05
2019-03-03T03:14:32.858Z,68.13
2019-03-03T03:17:20.179Z,67.95
2019-03-03T03:20:23.903Z,67.79
2019-03-03T03:23:00.156Z,67.47
2019-03-03T03:25:54.490Z,67.45
2019-03-03T03:28:33.483Z,67.28
2019-03-03T03:31:20.835Z,67.32
2019-03-03T03:34:18.211Z,67.35
2019-03-03T03:37:12.159Z,66.96
2019-03-03T03:39:59.144Z,66.86
2019-03-03T03:42:37.362Z,66.86
2019-03-03T03:45:33.475Z,66.74
2019-03-03T03:48:21.788Z,66.74
2019-03-03T03:51:25.485Z,67.07
2019-03-03T03:54:22.142Z,66.88
2019-03-03T03:57:00.896Z,67.74
2019-03-03T03:59:42.978Z,68.29
2019-03-03T04:02:23.965Z,68.89
2019-03-03T04:05:02.772Z,70.18
2019-03-03T04:07:54.432Z,71.05
2019-03-03T04:10:52.094Z,71.27
2019-03-03T04:13:44.618Z,72.07
2019-03-03T04:16:25.095Z,72.61
2019-03-03T04:19:10.393Z,72.93
2019-03-03T04:22:04.722Z,73.01
2019-03-03T04:24:58.910Z,73.25
2019-03-03T04:27:35.273Z,73.96
2019-03-03T04:30:23.675Z,74.23
2019-03-03T04:33:18.049Z,74.57
2019-03-03T04:36:02.383Z,74.88
2019-03-03T04:38:53.631Z,75.24
2019-03-03T04:41:39.008Z,75.37
2019-03-03T04:44:13.507Z,75.63
2019-03-03T04:46:48.223Z,75.99
2019-03-03T04:49:37.093Z,76.12
2019-03-03T04:52:24.119Z,75.98
2019-03-03T04:55:12.391Z,75.82
2019-03-03T04:57:53.520Z,75.89
2019-03-03T05:00:35.004Z,75.80
2019-03-03T05:03:26.300Z,75.67
2019-03-03T05:06:13.264Z,75.77
2019-03-03T05:08:50.927Z,75.49
2019-03-03T05:12:15.289Z,75.21
2019-03-03T05:14:44.742Z,74.80
2019-03-03T05:17:38.823Z,74.34
2019-03-03T05:20:08.825Z,73.75
2019-03-03T05:22:38.208Z,73.87
2019-03-03T05:25:07.890Z,74.14
2019-03-03T05:27:37.256Z,74.31
2019-03-03T05:30:07.421Z,74.46
2019-03-03T05:32:36.752Z,74.16
2019-03-03T05:35:06.304Z,73.83
2019-03-03T05:37:35.641Z,73.63
2019-03-03T05:40:08.978Z,73.81
2019-03-03T05:42:41.346Z,73.98
2019-03-03T05:45:10.800Z,73.46
2019-03-03T05:47:40.220Z,72.96
2019-03-03T05:50:09.590Z,73.00
2019-03-03T05:52:38.980Z,73.10
2019-03-03T05:55:08.359Z,73.08
2019-03-03T05:57:37.754Z,73.23
2019-03-03T06:00:07.369Z,73.31
2019-03-03T06:02:36.823Z,73.43
2019-03-03T06:05:06.628Z,73.25
2019-03-03T06:07:35.987Z,73.26
2019-03-03T06:10:06.362Z,73.27
2019-03-03T06:12:35.730Z,73.49
2019-03-03T06:15:05.671Z,73.83
2019-03-03T06:17:35.050Z,73.72
2019-03-03T06:20:04.962Z,73.43
2019-03-03T06:22:35.149Z,73.43
2019-03-03T06:25:04.953Z,73.20
2019-03-03T06:27:34.469Z,72.98
2019-03-03T06:30:05.460Z,72.50
2019-03-03T06:32:35.066Z,72.33
2019-03-03T06:35:04.881Z,72.06
2019-03-03T06:37:34.314Z,71.96
2019-03-03T06:40:03.854Z,71.69
2019-03-03T06:42:33.187Z,71.88
2019-03-03T06:45:02.557Z,72.54
2019-03-03T06:47:31.899Z,72.65
2019-03-03T06:50:01.330Z,72.26
2019-03-03T06:52:30.790Z,71.43
2019-03-03T06:55:00.240Z,71.43
2019-03-03T06:57:37.698Z,71.66
2019-03-03T07:00:12.207Z,71.66
2019-03-03T07:02:44.866Z,71.32
2019-03-03T07:05:14.335Z,71.04
2019-03-03T07:07:43.814Z,70.57
2019-03-03T07:10:14.438Z,70.57
2019-03-03T07:12:43.789Z,70.90
2019-03-03T07:15:15.002Z,70.52
2019-03-03T07:17:54.381Z,70.52
2019-03-03T07:21:07.647Z,70.05
2019-03-03T07:23:32.805Z,70.18
2019-03-03T07:26:02.174Z,70.06
2019-03-03T07:28:31.551Z,70.03
2019-03-03T07:31:00.919Z,70.16
2019-03-03T07:33:32.293Z,70.16
2019-03-03T07:36:01.653Z,69.49
2019-03-03T07:38:31.004Z,69.49
2019-03-03T07:41:00.378Z,69.05
2019-03-03T07:43:32.737Z,69.02
2019-03-03T07:46:02.195Z,69.01
2019-03-03T07:48:31.509Z,69.30
2019-03-03T07:51:00.854Z,69.50
2019-03-03T07:53:30.188Z,69.62
2019-03-03T07:56:06.316Z,69.94
2019-03-03T07:58:35.669Z,70.20
2019-03-03T08:01:05.123Z,70.27
2019-03-03T08:03:35.616Z,70.21
2019-03-03T08:06:04.902Z,70.13
2019-03-03T08:08:34.364Z,70.25
2019-03-03T08:11:03.837Z,69.69
2019-03-03T08:13:33.211Z,69.08
2019-03-03T08:16:02.619Z,68.73
2019-03-03T08:18:32.403Z,68.33
2019-03-03T08:21:01.770Z,68.17
2019-03-03T08:23:34.420Z,68.06
2019-03-03T08:26:04.062Z,67.49
2019-03-03T08:28:33.439Z,67.27
2019-03-03T08:31:02.773Z,67.08
2019-03-03T08:33:32.132Z,66.60
2019-03-03T08:36:02.896Z,66.94
2019-03-03T08:38:32.230Z,66.55
2019-03-03T08:41:01.624Z,66.47
2019-03-03T08:43:52.950Z,67.28
2019-03-03T08:46:41.055Z,68.13
2019-03-03T08:49:19.497Z,67.52
2019-03-03T08:52:20.173Z,67.42
2019-03-03T08:55:14.545Z,67.93
2019-03-03T08:58:05.859Z,67.17
2019-03-03T09:00:53.026Z,67.08
2019-03-03T09:03:40.294Z,66.09
2019-03-03T09:06:17.839Z,65.60
2019-03-03T09:09:06.120Z,64.72
2019-03-03T09:11:40.546Z,64.02
2019-03-03T09:14:25.228Z,64.01
2019-03-03T09:17:08.014Z,63.97
2019-03-03T09:19:55.279Z,64.85
2019-03-03T09:22:46.376Z,64.00
2019-03-03T09:25:33.476Z,64.45
2019-03-03T09:28:21.752Z,64.39
2019-03-03T09:31:06.952Z,64.68
2019-03-03T09:34:04.106Z,64.33
2019-03-03T09:36:55.314Z,63.87
2019-03-03T09:39:41.659Z,63.09
2019-03-03T09:42:32.972Z,63.10
2019-03-03T09:45:18.959Z,62.42
2019-03-03T09:47:55.595Z,60.78
2019-03-03T09:50:50.130Z,60.46
2019-03-03T09:53:38.094Z,60.16
2019-03-03T09:56:38.706Z,60.07
2019-03-03T09:59:28.746Z,59.81
2019-03-03T10:02:32.169Z,59.89
2019-03-03T10:05:26.254Z,58.92
2019-03-03T10:08:11.445Z,59.12
2019-03-03T10:11:11.990Z,59.47
2019-03-03T10:14:13.534Z,59.03
2019-03-03T10:17:14.121Z,58.59
2019-03-03T10:19:52.508Z,58.86
2019-03-03T10:22:51.673Z,57.65
2019-03-03T10:25:47.032Z,57.07
2019-03-03T10:28:34.439Z,55.51
2019-03-03T10:31:22.812Z,55.91
2019-03-03T10:34:25.809Z,55.84
2019-03-03T10:37:14.570Z,55.74
2019-03-03T10:40:05.971Z,55.33
2019-03-03T10:42:57.534Z,55.74
2019-03-03T10:45:52.675Z,55.71
2019-03-03T10:48:36.169Z,56.55
2019-03-03T10:51:23.234Z,56.29
2019-03-03T10:54:23.753Z,56.61
2019-03-03T10:57:24.704Z,56.86
2019-03-03T11:00:02.719Z,56.68
2019-03-03T11:02:58.648Z,56.87
2019-03-03T11:06:03.730Z,57.16
2019-03-03T11:08:42.929Z,56.40
2019-03-03T11:11:43.534Z,56.49
2019-03-03T11:14:50.313Z,56.40
2019-03-03T11:17:41.375Z,56.55
2019-03-03T11:20:25.340Z,56.85
2019-03-03T11:23:20.083Z,57.29
2019-03-03T11:26:16.308Z,57.43
2019-03-03T11:29:24.805Z,57.56
2019-03-03T11:32:31.918Z,57.42
2019-03-03T11:35:19.115Z,56.73
2019-03-03T11:38:14.710Z,55.20
2019-03-03T11:41:20.953Z,54.07
2019-03-03T11:44:02.449Z,54.15
2019-03-03T11:46:59.836Z,53.93
2019-03-03T11:49:53.523Z,54.35
2019-03-03T11:52:37.833Z,54.19
2019-03-03T11:55:29.089Z,53.91
2019-03-03T11:58:17.494Z,53.35
2019-03-03T12:01:04.763Z,53.92
2019-03-03T12:03:58.258Z,53.78
2019-03-03T12:06:46.896Z,54.02
2019-03-03T12:09:29.732Z,53.98
2019-03-03T12:12:16.928Z,54.16
2019-03-03T12:14:57.016Z,54.14
2019-03-03T12:17:45.298Z,54.16
2019-03-03T12:20:23.941Z,53.80
2019-03-03T12:23:10.808Z,53.27
2019-03-03T12:25:46.712Z,52.83
2019-03-03T12:28:33.985Z,53.12
2019-03-03T12:31:12.863Z,53.08
2019-03-03T12:34:01.101Z,52.52
2019-03-03T12:37:07.736Z,51.84
2019-03-03T12:39:53.756Z,51.53
2019-03-03T12:42:39.661Z,52.15
2019-03-03T12:45:26.681Z,51.98
2019-03-03T12:48:17.713Z,52.00
2019-03-03T12:51:44.513Z,51.02
2019-03-03T12:54:32.056Z,50.71
2019-03-03T12:57:18.226Z,50.65
2019-03-03T13:00:11.452Z,50.46
2019-03-03T13:03:09.389Z,50.19
2019-03-03T13:05:56.467Z,49.80
2019-03-03T13:08:41.390Z,48.22
2019-03-03T13:11:32.588Z,47.86
2019-03-03T13:14:33.297Z,47.37
2019-03-03T13:17:11.127Z,47.42
2019-03-03T13:20:05.403Z,47.25
2019-03-03T13:22:51.129Z,47.31
2019-03-03T13:25:35.522Z,46.89
2019-03-03T13:28:26.649Z,47.39
2019-03-03T13:31:13.804Z,46.80
2019-03-03T13:34:08.377Z,46.88
2019-03-03T13:37:11.740Z,46.37
2019-03-03T13:40:14.804Z,46.67
2019-03-03T13:42:56.699Z,45.64
2019-03-03T13:45:28.859Z,44.94
2019-03-03T13:47:58.317Z,44.99
2019-03-03T13:50:27.654Z,45.00
2019-03-03T13:52:57.029Z,44.75
2019-03-03T13:55:26.465Z,45.08
2019-03-03T13:57:55.922Z,44.28
2019-03-03T14:00:25.741Z,43.33
2019-03-03T14:02:55.130Z,41.87
2019-03-03T14:05:24.986Z,42.01
2019-03-03T14:07:54.461Z,42.01
2019-03-03T14:10:23.907Z,41.89
2019-03-03T14:12:53.260Z,42.03
2019-03-03T14:15:22.641Z,42.05
2019-03-03T14:17:52.004Z,42.11
2019-03-03T14:20:22.758Z,42.13
2019-03-03T14:22:53.664Z,42.65
2019-03-03T14:25:23.152Z,42.88
2019-03-03T14:27:52.567Z,43.11
2019-03-03T14:30:23.637Z,43.49
2019-03-03T14:32:52.959Z,43.14
2019-03-03T14:35:25.195Z,43.61
2019-03-03T14:37:54.529Z,43.58
2019-03-03T14:40:23.867Z,43.88
2019-03-03T14:42:53.245Z,44.05
2019-03-03T14:45:22.894Z,44.46
2019-03-03T14:47:52.227Z,44.13
2019-03-03T14:50:21.822Z,44.29
2019-03-03T14:52:51.361Z,44.61
2019-03-03T14:55:20.777Z,44.31
2019-03-03T14:57:50.270Z,44.19
2019-03-03T15:00:31.216Z,44.31
2019-03-03T15:03:02.381Z,43.68
2019-03-03T15:05:31.792Z,43.92
2019-03-03T15:08:01.149Z,43.09
2019-03-03T15:10:30.511Z,43.20
2019-03-03T15:13:00.211Z,43.56
2019-03-03T15:15:30.415Z,43.45
2019-03-03T15:17:59.761Z,43.52
2019-03-03T15:20:29.093Z,43.78
2019-03-03T15:22:58.594Z,43.53
2019-03-03T15:25:28.173Z,43.78
2019-03-03T15:27:57.525Z,43.66
2019-03-03T15:30:26.854Z,44.04
2019-03-03T15:32:56.221Z,44.29
2019-03-03T15:35:27.444Z,44.49
2019-03-03T15:37:56.991Z,44.51
2019-03-03T15:40:26.375Z,44.41
2019-03-03T15:42:55.836Z,44.31
2019-03-03T15:45:25.387Z,44.57
2019-03-03T15:47:54.719Z,47.41
2019-03-03T15:50:24.205Z,45.90
2019-03-03T15:52:53.597Z,44.49
2019-03-03T15:55:23.031Z,44.84
2019-03-03T15:57:52.642Z,45.09
2019-03-03T16:00:24.205Z,45.29
2019-03-03T16:02:53.645Z,45.51
2019-03-03T16:05:23.038Z,45.84
2019-03-03T16:07:52.878Z,46.23
2019-03-03T16:10:22.693Z,46.37
2019-03-03T16:12:52.028Z,46.82
2019-03-03T16:15:30.737Z,47.32
2019-03-03T16:18:02.456Z,47.68
2019-03-03T16:20:31.808Z,47.87
2019-03-03T16:23:01.159Z,48.25
2019-03-03T16:25:34.630Z,47.99
2019-03-03T16:28:04.007Z,48.52
2019-03-03T16:30:33.454Z,48.97
2019-03-03T16:33:02.841Z,48.57
2019-03-03T16:35:32.187Z,48.93
2019-03-03T16:38:01.569Z,49.12
2019-03-03T16:40:39.289Z,49.44
2019-03-03T16:43:02.167Z,49.40
2019-03-03T16:45:31.529Z,49.79
2019-03-03T16:48:00.915Z,49.88
2019-03-03T16:50:30.276Z,49.78
2019-03-03T16:52:59.626Z,49.99
2019-03-03T16:55:28.988Z,50.31
2019-03-03T16:57:58.390Z,50.52
2019-03-03T17:00:29.635Z,50.70
2019-03-03T17:02:59.016Z,51.10
2019-03-03T17:05:28.387Z,51.31
2019-03-03T17:07:57.721Z,51.68
2019-03-03T17:10:27.244Z,51.68
2019-03-03T17:12:56.597Z,51.98
2019-03-03T17:15:26.025Z,52.17
2019-03-03T17:17:55.404Z,52.09
2019-03-03T17:20:24.747Z,52.23
2019-03-03T17:22:54.111Z,52.25
2019-03-03T17:25:24.064Z,52.38
2019-03-03T17:27:53.434Z,52.40
2019-03-03T17:30:23.342Z,52.44
2019-03-03T17:32:53.207Z,52.56
2019-03-03T17:35:22.579Z,52.56
2019-03-03T17:37:52.183Z,52.72
2019-03-03T17:40:22.444Z,52.45
2019-03-03T17:42:52.942Z,52.49
2019-03-03T17:45:22.589Z,52.44
2019-03-03T17:47:52.363Z,52.73
2019-03-03T17:50:22.137Z,52.62
2019-03-03T17:52:53.151Z,52.44
2019-03-03T17:55:22.584Z,52.85
2019-03-03T17:57:52.235Z,52.59
2019-03-03T18:00:24.051Z,52.66
2019-03-03T18:02:53.939Z,52.85
2019-03-03T18:05:23.338Z,52.75
2019-03-03T18:07:52.841Z,52.92
2019-03-03T18:10:22.271Z,53.00
2019-03-03T18:12:51.944Z,53.38
2019-03-03T18:15:21.413Z,53.15
2019-03-03T18:18:22.071Z,53.26
2019-03-03T18:20:51.646Z,53.51
2019-03-03T18:24:14.535Z,53.44
2019-03-03T18:26:43.973Z,53.54
2019-03-03T18:29:13.463Z,53.89
2019-03-03T18:31:42.898Z,54.20
2019-03-03T18:34:12.271Z,54.28
2019-03-03T18:36:41.692Z,54.79
2019-03-03T18:39:11.220Z,55.00
2019-03-03T18:41:40.643Z,55.38
2019-03-03T18:44:10.379Z,55.05
2019-03-03T18:46:41.634Z,55.30
2019-03-03T18:49:11.173Z,55.20
2019-03-03T18:51:43.115Z,55.71
2019-03-03T18:54:12.474Z,55.71
2019-03-03T18:56:41.889Z,55.64
2019-03-03T18:59:11.389Z,55.94
2019-03-03T19:01:40.744Z,56.15
2019-03-03T19:04:10.437Z,56.04
2019-03-03T19:06:39.786Z,56.09
2019-03-03T19:09:11.790Z,56.32
2019-03-03T19:11:41.166Z,56.80
2019-03-03T19:14:10.508Z,56.89
2019-03-03T19:16:40.870Z,57.38
2019-03-03T19:19:10.225Z,57.14
2019-03-03T19:21:39.593Z,57.50
2019-03-03T19:24:08.941Z,57.54
2019-03-03T19:26:38.295Z,57.51
2019-03-03T19:29:07.717Z,58.00
2019-03-03T19:31:37.115Z,57.89
2019-03-03T19:34:08.900Z,58.03
2019-03-03T19:36:38.359Z,57.93
2019-03-03T19:39:07.866Z,58.32
2019-03-03T19:41:37.269Z,58.20
2019-03-03T19:44:06.658Z,58.41
2019-03-03T19:46:36.305Z,58.68
2019-03-03T19:49:05.915Z,58.59
2019-03-03T19:51:35.349Z,58.80
2019-03-03T19:54:04.878Z,58.95
2019-03-03T19:56:34.218Z,59.07
2019-03-03T19:59:03.577Z,59.03
2019-03-03T20:01:32.926Z,59.44
2019-03-03T20:04:02.257Z,59.44
2019-03-03T20:06:31.605Z,59.21
2019-03-03T20:09:01.007Z,59.42
2019-03-03T20:11:30.378Z,59.89
2019-03-03T20:14:02.035Z,59.82
2019-03-03T20:16:31.507Z,59.26
2019-03-03T20:19:00.870Z,59.24
2019-03-03T20:21:30.270Z,59.71
2019-03-03T20:23:59.679Z,58.97
2019-03-03T20:26:29.040Z,59.37
2019-03-03T20:28:58.397Z,58.93
2019-03-03T20:31:28.567Z,59.06
2019-03-03T20:33:58.702Z,60.10
2019-03-03T20:36:28.219Z,60.08
2019-03-03T20:38:57.581Z,60.18
2019-03-03T20:41:26.915Z,59.76
2019-03-03T20:43:56.272Z,60.14
2019-03-03T20:46:25.943Z,61.08
2019-03-03T20:48:55.279Z,60.51
2019-03-03T20:51:24.630Z,60.65
2019-03-03T20:53:53.998Z,61.77
2019-03-03T20:56:23.333Z,61.77
2019-03-03T20:58:54.107Z,61.99
2019-03-03T21:01:26.442Z,62.29
2019-03-03T21:03:55.810Z,62.31
2019-03-03T21:06:25.181Z,62.68
2019-03-03T21:08:54.586Z,63.03
2019-03-03T21:11:24.069Z,63.03
2019-03-03T21:13:53.492Z,63.41
2019-03-03T21:16:22.891Z,63.41
2019-03-03T21:18:52.295Z,64.14
2019-03-03T21:21:21.655Z,63.65
2019-03-03T21:23:51.217Z,63.98
2019-03-03T21:26:20.606Z,64.20
2019-03-03T21:28:49.995Z,64.35
2019-03-03T21:31:19.482Z,64.39
2019-03-03T21:33:51.987Z,64.54
2019-03-03T21:36:21.383Z,64.45
2019-03-03T21:38:50.874Z,64.57
2019-03-03T21:41:20.951Z,64.83
2019-03-03T21:43:50.387Z,65.09
2019-03-03T21:46:19.744Z,65.18
2019-03-03T21:48:49.728Z,65.23
2019-03-03T21:51:20.735Z,65.41
2019-03-03T21:53:50.204Z,65.40
2019-03-03T21:56:20.302Z,65.51
2019-03-03T21:58:52.811Z,65.86
2019-03-03T22:01:22.233Z,66.24
2019-03-03T22:03:51.599Z,66.05
2019-03-03T22:06:21.015Z,66.08
2019-03-03T22:08:50.497Z,66.27
2019-03-03T22:11:19.873Z,66.54
2019-03-03T22:13:49.334Z,66.27
2019-03-03T22:16:18.705Z,66.32
2019-03-03T22:18:48.159Z,66.76
2019-03-03T22:21:17.564Z,67.09
2019-03-03T22:23:46.972Z,67.09
2019-03-03T22:26:16.445Z,67.34
2019-03-03T22:28:45.898Z,67.81
2019-03-03T22:31:15.381Z,67.76
2019-03-03T22:33:44.950Z,68.02
2019-03-03T22:36:14.355Z,67.80
2019-03-03T22:38:43.955Z,68.07
2019-03-03T22:41:13.456Z,67.69
2019-03-03T22:43:42.992Z,67.83
2019-03-03T22:46:12.353Z,67.83
2019-03-03T22:48:41.762Z,68.22
2019-03-03T22:51:11.195Z,68.19
2019-03-03T22:53:40.607Z,68.19
2019-03-03T22:56:10.028Z,68.64
2019-03-03T22:58:39.532Z,68.64
2019-03-03T23:01:22.758Z,68.64
2019-03-03T23:04:13.929Z,69.18
2019-03-03T23:07:01.024Z,69.18
2019-03-03T23:10:18.762Z,69.65
2019-03-03T23:13:11.855Z,69.99
2019-03-03T23:16:24.159Z,69.79
2019-03-03T23:19:12.538Z,69.90
2019-03-03T23:22:08.790Z,70.16
2019-03-03T23:25:37.266Z,70.62
2019-03-03T23:28:09.170Z,71.07
2019-03-03T23:30:38.668Z,71.45
2019-03-03T23:33:07.992Z,71.50
2019-03-03T23:35:37.403Z,71.92
2019-03-03T23:38:06.745Z,71.47
2019-03-03T23:40:36.133Z,71.98
2019-03-03T23:43:05.563Z,72.93
2019-03-03T23:45:34.992Z,72.33
2019-03-03T23:48:04.566Z,72.14
2019-03-03T23:50:33.919Z,72.43
2019-03-03T23:53:03.322Z,72.54
2019-03-03T23:55:32.731Z,72.66
2019-03-03T23:58:02.119Z,72.82
